Terminal Aerodrome Forecast
Issued by NWS Quad Cities IA IL

Current Version | Previous Version | Text Only | Print | Product List | Glossary On
Versions: 1 2 3 4 5 6 7 8 9 10 11 12 13 14 15 16 17 18 19 20 21 22
600
FTUS43 KDVN 221306 AAC
TAFDBQ
TAF AMD
KDBQ 221306Z 2213/2312 30008KT P6SM BKN009
     FM221530 32012KT P6SM SCT020
     FM221700 33017G24KT P6SM SCT035
     FM230000 31007KT P6SM SKC=

USA.gov is the U.S. government's official web portal to all federal, state and local government web resources and services.